sensor_id;sensor_type;location;lat;lon;timestamp;temperature;humidity
66096;SHT31;53861;53.422;14.530;2022-12-07T00:01:57;2.75;97.52
66096;SHT31;53861;53.422;14.530;2022-12-07T00:04:24;2.81;97.80
66096;SHT31;53861;53.422;14.530;2022-12-07T00:06:52;2.90;97.92
66096;SHT31;53861;53.422;14.530;2022-12-07T00:09:19;2.96;97.63
66096;SHT31;53861;53.422;14.530;2022-12-07T00:11:48;2.91;97.49
66096;SHT31;53861;53.422;14.530;2022-12-07T00:14:16;3.01;97.69
66096;SHT31;53861;53.422;14.530;2022-12-07T00:16:44;2.98;97.33
66096;SHT31;53861;53.422;14.530;2022-12-07T00:19:11;2.98;97.13
66096;SHT31;53861;53.422;14.530;2022-12-07T00:21:38;2.96;97.30
66096;SHT31;53861;53.422;14.530;2022-12-07T00:24:05;2.96;96.37
66096;SHT31;53861;53.422;14.530;2022-12-07T00:26:33;2.81;96.87
66096;SHT31;53861;53.422;14.530;2022-12-07T00:29:01;2.91;97.53
66096;SHT31;53861;53.422;14.530;2022-12-07T00:31:30;2.91;97.40
66096;SHT31;53861;53.422;14.530;2022-12-07T00:34:00;2.84;97.50
66096;SHT31;53861;53.422;14.530;2022-12-07T00:36:27;2.98;97.68
66096;SHT31;53861;53.422;14.530;2022-12-07T00:38:54;3.00;97.60
66096;SHT31;53861;53.422;14.530;2022-12-07T00:41:21;2.98;97.06
66096;SHT31;53861;53.422;14.530;2022-12-07T00:43:49;2.96;97.20
66096;SHT31;53861;53.422;14.530;2022-12-07T00:46:16;3.03;97.51
66096;SHT31;53861;53.422;14.530;2022-12-07T00:48:43;3.01;96.87
66096;SHT31;53861;53.422;14.530;2022-12-07T00:51:12;3.03;97.20
66096;SHT31;53861;53.422;14.530;2022-12-07T00:53:40;2.91;96.56
66096;SHT31;53861;53.422;14.530;2022-12-07T00:56:07;3.01;97.00
66096;SHT31;53861;53.422;14.530;2022-12-07T00:59:02;2.94;97.15
66096;SHT31;53861;53.422;14.530;2022-12-07T01:01:30;3.00;97.74
66096;SHT31;53861;53.422;14.530;2022-12-07T01:03:58;3.05;97.72
66096;SHT31;53861;53.422;14.530;2022-12-07T01:06:28;3.07;97.48
66096;SHT31;53861;53.422;14.530;2022-12-07T01:08:55;3.04;96.91
66096;SHT31;53861;53.422;14.530;2022-12-07T01:11:23;2.97;96.39
66096;SHT31;53861;53.422;14.530;2022-12-07T01:13:50;3.00;97.41
66096;SHT31;53861;53.422;14.530;2022-12-07T01:16:17;3.01;97.29
66096;SHT31;53861;53.422;14.530;2022-12-07T01:18:45;3.03;97.52
66096;SHT31;53861;53.422;14.530;2022-12-07T01:21:13;2.94;97.03
66096;SHT31;53861;53.422;14.530;2022-12-07T01:23:42;2.97;97.89
66096;SHT31;53861;53.422;14.530;2022-12-07T01:26:10;2.97;97.41
66096;SHT31;53861;53.422;14.530;2022-12-07T01:28:37;3.01;97.51
66096;SHT31;53861;53.422;14.530;2022-12-07T01:31:05;2.98;96.96
66096;SHT31;53861;53.422;14.530;2022-12-07T01:33:33;3.00;97.08
66096;SHT31;53861;53.422;14.530;2022-12-07T01:36:01;3.04;97.01
66096;SHT31;53861;53.422;14.530;2022-12-07T01:38:28;3.08;96.97
66096;SHT31;53861;53.422;14.530;2022-12-07T01:40:56;3.04;96.49
66096;SHT31;53861;53.422;14.530;2022-12-07T01:43:24;3.01;96.59
66096;SHT31;53861;53.422;14.530;2022-12-07T01:45:52;3.01;96.82
66096;SHT31;53861;53.422;14.530;2022-12-07T01:48:19;2.96;97.01
66096;SHT31;53861;53.422;14.530;2022-12-07T01:50:48;2.96;97.09
66096;SHT31;53861;53.422;14.530;2022-12-07T01:53:15;3.03;97.04
66096;SHT31;53861;53.422;14.530;2022-12-07T01:55:44;3.01;96.83
66096;SHT31;53861;53.422;14.530;2022-12-07T01:58:14;3.05;97.33
66096;SHT31;53861;53.422;14.530;2022-12-07T02:00:41;3.00;96.46
66096;SHT31;53861;53.422;14.530;2022-12-07T02:03:09;2.94;96.67
66096;SHT31;53861;53.422;14.530;2022-12-07T02:05:38;2.96;97.19
66096;SHT31;53861;53.422;14.530;2022-12-07T02:08:06;2.94;96.26
66096;SHT31;53861;53.422;14.530;2022-12-07T02:10:33;2.91;96.70
66096;SHT31;53861;53.422;14.530;2022-12-07T02:13:01;2.86;96.87
66096;SHT31;53861;53.422;14.530;2022-12-07T02:15:34;2.84;96.62
66096;SHT31;53861;53.422;14.530;2022-12-07T02:18:05;2.83;96.71
66096;SHT31;53861;53.422;14.530;2022-12-07T02:20:33;2.81;96.88
66096;SHT31;53861;53.422;14.530;2022-12-07T02:23:18;2.75;96.57
66096;SHT31;53861;53.422;14.530;2022-12-07T02:26:01;2.87;97.49
66096;SHT31;53861;53.422;14.530;2022-12-07T02:28:30;2.86;96.77
66096;SHT31;53861;53.422;14.530;2022-12-07T02:31:01;2.81;95.77
66096;SHT31;53861;53.422;14.530;2022-12-07T02:33:30;2.77;95.97
66096;SHT31;53861;53.422;14.530;2022-12-07T02:35:59;2.73;95.86
66096;SHT31;53861;53.422;14.530;2022-12-07T02:38:30;2.81;95.43
66096;SHT31;53861;53.422;14.530;2022-12-07T02:41:00;2.77;96.24
66096;SHT31;53861;53.422;14.530;2022-12-07T02:46:15;2.81;97.11
66096;SHT31;53861;53.422;14.530;2022-12-07T02:48:43;2.83;95.32
66096;SHT31;53861;53.422;14.530;2022-12-07T02:51:11;2.90;96.56
66096;SHT31;53861;53.422;14.530;2022-12-07T02:53:39;2.83;95.61
66096;SHT31;53861;53.422;14.530;2022-12-07T02:56:07;2.70;96.14
66096;SHT31;53861;53.422;14.530;2022-12-07T02:58:38;2.60;96.45
66096;SHT31;53861;53.422;14.530;2022-12-07T03:01:14;2.53;95.93
66096;SHT31;53861;53.422;14.530;2022-12-07T03:03:47;2.47;95.95
66096;SHT31;53861;53.422;14.530;2022-12-07T03:06:16;2.46;96.78
66096;SHT31;53861;53.422;14.530;2022-12-07T03:08:49;2.56;97.25
66096;SHT31;53861;53.422;14.530;2022-12-07T03:11:20;2.46;96.03
66096;SHT31;53861;53.422;14.530;2022-12-07T03:13:49;2.45;96.80
66096;SHT31;53861;53.422;14.530;2022-12-07T03:16:26;2.30;96.27
66096;SHT31;53861;53.422;14.530;2022-12-07T03:18:56;2.35;97.11
66096;SHT31;53861;53.422;14.530;2022-12-07T03:21:25;2.28;96.92
66096;SHT31;53861;53.422;14.530;2022-12-07T03:23:55;2.14;96.45
66096;SHT31;53861;53.422;14.530;2022-12-07T03:26:24;2.12;97.32
66096;SHT31;53861;53.422;14.530;2022-12-07T03:28:55;1.99;96.71
66096;SHT31;53861;53.422;14.530;2022-12-07T03:31:25;1.95;97.15
66096;SHT31;53861;53.422;14.530;2022-12-07T03:33:54;1.95;97.19
66096;SHT31;53861;53.422;14.530;2022-12-07T03:36:25;2.01;97.36
66096;SHT31;53861;53.422;14.530;2022-12-07T03:38:57;2.01;97.03
66096;SHT31;53861;53.422;14.530;2022-12-07T03:41:26;2.11;97.32
66096;SHT31;53861;53.422;14.530;2022-12-07T03:43:54;2.14;96.92
66096;SHT31;53861;53.422;14.530;2022-12-07T03:46:25;2.24;97.65
66096;SHT31;53861;53.422;14.530;2022-12-07T03:48:55;2.11;96.55
66096;SHT31;53861;53.422;14.530;2022-12-07T03:51:26;2.19;97.08
66096;SHT31;53861;53.422;14.530;2022-12-07T03:53:57;2.26;97.14
66096;SHT31;53861;53.422;14.530;2022-12-07T03:56:25;2.26;96.79
66096;SHT31;53861;53.422;14.530;2022-12-07T03:58:53;2.45;97.32
66096;SHT31;53861;53.422;14.530;2022-12-07T04:01:20;2.40;97.03
66096;SHT31;53861;53.422;14.530;2022-12-07T04:03:49;2.39;96.05
66096;SHT31;53861;53.422;14.530;2022-12-07T04:06:15;2.46;97.16
66096;SHT31;53861;53.422;14.530;2022-12-07T04:08:44;2.36;96.45
66096;SHT31;53861;53.422;14.530;2022-12-07T04:11:11;2.43;96.36
66096;SHT31;53861;53.422;14.530;2022-12-07T04:13:37;2.40;96.50
66096;SHT31;53861;53.422;14.530;2022-12-07T04:16:18;2.40;96.23
66096;SHT31;53861;53.422;14.530;2022-12-07T04:18:45;2.42;96.92
66096;SHT31;53861;53.422;14.530;2022-12-07T04:21:12;2.30;95.91
66096;SHT31;53861;53.422;14.530;2022-12-07T04:23:39;2.43;97.01
66096;SHT31;53861;53.422;14.530;2022-12-07T04:26:07;2.37;96.85
66096;SHT31;53861;53.422;14.530;2022-12-07T04:28:34;2.32;95.84
66096;SHT31;53861;53.422;14.530;2022-12-07T04:31:01;2.35;96.58
66096;SHT31;53861;53.422;14.530;2022-12-07T04:33:28;2.33;96.13
66096;SHT31;53861;53.422;14.530;2022-12-07T04:35:55;2.29;96.90
66096;SHT31;53861;53.422;14.530;2022-12-07T04:38:22;2.26;96.32
66096;SHT31;53861;53.422;14.530;2022-12-07T04:40:48;2.32;96.34
66096;SHT31;53861;53.422;14.530;2022-12-07T04:43:17;2.19;95.62
66096;SHT31;53861;53.422;14.530;2022-12-07T04:45:45;2.14;95.49
66096;SHT31;53861;53.422;14.530;2022-12-07T04:48:12;2.16;96.12
66096;SHT31;53861;53.422;14.530;2022-12-07T04:50:39;2.04;95.57
66096;SHT31;53861;53.422;14.530;2022-12-07T04:53:06;2.16;96.78
66096;SHT31;53861;53.422;14.530;2022-12-07T04:55:32;2.24;96.64
66096;SHT31;53861;53.422;14.530;2022-12-07T04:57:59;2.19;95.98
66096;SHT31;53861;53.422;14.530;2022-12-07T05:03:29;2.30;96.10
66096;SHT31;53861;53.422;14.530;2022-12-07T05:05:56;2.22;96.42
66096;SHT31;53861;53.422;14.530;2022-12-07T05:08:23;2.35;96.59
66096;SHT31;53861;53.422;14.530;2022-12-07T05:10:50;2.43;96.69
66096;SHT31;53861;53.422;14.530;2022-12-07T05:13:16;2.30;96.55
66096;SHT31;53861;53.422;14.530;2022-12-07T05:15:43;2.33;96.70
66096;SHT31;53861;53.422;14.530;2022-12-07T05:18:11;2.22;96.43
66096;SHT31;53861;53.422;14.530;2022-12-07T05:20:40;2.35;96.84
66096;SHT31;53861;53.422;14.530;2022-12-07T05:23:07;2.35;96.37
66096;SHT31;53861;53.422;14.530;2022-12-07T05:25:34;2.26;95.62
66096;SHT31;53861;53.422;14.530;2022-12-07T05:28:01;2.04;95.31
66096;SHT31;53861;53.422;14.530;2022-12-07T05:30:28;2.08;96.88
66096;SHT31;53861;53.422;14.530;2022-12-07T05:32:55;2.14;97.00
66096;SHT31;53861;53.422;14.530;2022-12-07T05:35:22;2.15;96.54
66096;SHT31;53861;53.422;14.530;2022-12-07T05:37:50;2.16;96.78
66096;SHT31;53861;53.422;14.530;2022-12-07T05:40:17;2.11;96.74
66096;SHT31;53861;53.422;14.530;2022-12-07T05:42:44;2.06;96.38
66096;SHT31;53861;53.422;14.530;2022-12-07T05:45:11;1.73;95.47
66096;SHT31;53861;53.422;14.530;2022-12-07T05:47:38;1.88;97.32
66096;SHT31;53861;53.422;14.530;2022-12-07T05:50:06;2.04;97.14
66096;SHT31;53861;53.422;14.530;2022-12-07T05:52:33;1.84;95.92
66096;SHT31;53861;53.422;14.530;2022-12-07T05:55:01;1.74;96.47
66096;SHT31;53861;53.422;14.530;2022-12-07T05:57:28;1.88;97.11
66096;SHT31;53861;53.422;14.530;2022-12-07T05:59:55;1.65;96.13
66096;SHT31;53861;53.422;14.530;2022-12-07T06:02:20;1.71;97.15
66096;SHT31;53861;53.422;14.530;2022-12-07T06:04:47;1.86;97.34
66096;SHT31;53861;53.422;14.530;2022-12-07T06:07:15;1.92;97.04
66096;SHT31;53861;53.422;14.530;2022-12-07T06:09:42;1.78;96.38
66096;SHT31;53861;53.422;14.530;2022-12-07T06:12:11;1.78;96.89
66096;SHT31;53861;53.422;14.530;2022-12-07T06:14:55;1.75;96.76
66096;SHT31;53861;53.422;14.530;2022-12-07T06:17:22;1.68;96.66
66096;SHT31;53861;53.422;14.530;2022-12-07T06:19:49;1.78;97.12
66096;SHT31;53861;53.422;14.530;2022-12-07T06:22:16;1.67;96.51
66096;SHT31;53861;53.422;14.530;2022-12-07T06:24:43;1.63;96.99
66096;SHT31;53861;53.422;14.530;2022-12-07T06:27:11;1.58;96.76
66096;SHT31;53861;53.422;14.530;2022-12-07T06:29:38;1.67;96.93
66096;SHT31;53861;53.422;14.530;2022-12-07T06:32:05;1.65;97.26
66096;SHT31;53861;53.422;14.530;2022-12-07T06:34:33;1.64;97.23
66096;SHT31;53861;53.422;14.530;2022-12-07T06:37:00;1.74;97.64
66096;SHT31;53861;53.422;14.530;2022-12-07T06:39:27;1.73;96.94
66096;SHT31;53861;53.422;14.530;2022-12-07T06:41:55;1.82;97.32
66096;SHT31;53861;53.422;14.530;2022-12-07T06:44:23;1.75;96.52
66096;SHT31;53861;53.422;14.530;2022-12-07T06:46:51;1.47;95.87
66096;SHT31;53861;53.422;14.530;2022-12-07T06:49:18;1.60;96.89
66096;SHT31;53861;53.422;14.530;2022-12-07T06:51:45;1.67;97.23
66096;SHT31;53861;53.422;14.530;2022-12-07T06:54:12;1.63;96.89
66096;SHT31;53861;53.422;14.530;2022-12-07T06:56:39;1.73;97.48
66096;SHT31;53861;53.422;14.530;2022-12-07T06:59:06;1.68;96.60
66096;SHT31;53861;53.422;14.530;2022-12-07T07:01:34;1.84;97.25
66096;SHT31;53861;53.422;14.530;2022-12-07T07:04:01;1.63;96.84
66096;SHT31;53861;53.422;14.530;2022-12-07T07:06:28;1.73;97.35
66096;SHT31;53861;53.422;14.530;2022-12-07T07:08:55;1.78;96.84
66096;SHT31;53861;53.422;14.530;2022-12-07T07:11:22;1.81;96.56
66096;SHT31;53861;53.422;14.530;2022-12-07T07:13:49;1.88;97.05
66096;SHT31;53861;53.422;14.530;2022-12-07T07:16:16;1.85;96.95
66096;SHT31;53861;53.422;14.530;2022-12-07T07:18:44;1.89;96.88
66096;SHT31;53861;53.422;14.530;2022-12-07T07:21:11;1.89;96.86
66096;SHT31;53861;53.422;14.530;2022-12-07T07:23:44;1.82;96.56
66096;SHT31;53861;53.422;14.530;2022-12-07T07:26:11;1.85;96.76
66096;SHT31;53861;53.422;14.530;2022-12-07T07:28:38;1.79;97.06
66096;SHT31;53861;53.422;14.530;2022-12-07T07:31:05;1.94;96.76
66096;SHT31;53861;53.422;14.530;2022-12-07T07:33:31;1.94;97.33
66096;SHT31;53861;53.422;14.530;2022-12-07T07:36:00;1.97;96.97
66096;SHT31;53861;53.422;14.530;2022-12-07T07:38:26;1.97;96.60
66096;SHT31;53861;53.422;14.530;2022-12-07T07:40:53;2.04;97.00
66096;SHT31;53861;53.422;14.530;2022-12-07T07:43:20;2.14;97.27
66096;SHT31;53861;53.422;14.530;2022-12-07T07:45:47;2.15;96.91
66096;SHT31;53861;53.422;14.530;2022-12-07T07:48:14;2.15;96.96
66096;SHT31;53861;53.422;14.530;2022-12-07T07:50:41;2.11;96.54
66096;SHT31;53861;53.422;14.530;2022-12-07T07:53:09;2.18;96.60
66096;SHT31;53861;53.422;14.530;2022-12-07T07:55:36;2.14;96.66
66096;SHT31;53861;53.422;14.530;2022-12-07T07:58:03;2.18;97.07
66096;SHT31;53861;53.422;14.530;2022-12-07T08:00:29;2.15;96.60
66096;SHT31;53861;53.422;14.530;2022-12-07T08:02:56;2.15;96.80
66096;SHT31;53861;53.422;14.530;2022-12-07T08:05:24;2.18;97.11
66096;SHT31;53861;53.422;14.530;2022-12-07T08:07:51;2.18;97.14
66096;SHT31;53861;53.422;14.530;2022-12-07T08:10:19;2.16;97.23
66096;SHT31;53861;53.422;14.530;2022-12-07T08:12:46;2.19;97.14
66096;SHT31;53861;53.422;14.530;2022-12-07T08:15:30;2.29;97.22
66096;SHT31;53861;53.422;14.530;2022-12-07T08:17:58;2.22;96.84
66096;SHT31;53861;53.422;14.530;2022-12-07T08:20:25;2.16;97.09
66096;SHT31;53861;53.422;14.530;2022-12-07T08:22:52;2.19;97.00
66096;SHT31;53861;53.422;14.530;2022-12-07T08:25:20;2.24;97.64
66096;SHT31;53861;53.422;14.530;2022-12-07T08:27:47;2.24;96.60
66096;SHT31;53861;53.422;14.530;2022-12-07T08:30:14;2.21;96.86
66096;SHT31;53861;53.422;14.530;2022-12-07T08:32:41;2.22;97.20
66096;SHT31;53861;53.422;14.530;2022-12-07T08:35:09;2.15;97.32
66096;SHT31;53861;53.422;14.530;2022-12-07T08:37:36;2.25;97.48
66096;SHT31;53861;53.422;14.530;2022-12-07T08:40:03;2.33;96.87
66096;SHT31;53861;53.422;14.530;2022-12-07T08:42:31;2.25;96.95
66096;SHT31;53861;53.422;14.530;2022-12-07T08:45:04;2.29;96.90
66096;SHT31;53861;53.422;14.530;2022-12-07T08:47:31;2.28;96.67
66096;SHT31;53861;53.422;14.530;2022-12-07T08:49:58;2.45;97.58
66096;SHT31;53861;53.422;14.530;2022-12-07T08:52:29;2.36;96.86
66096;SHT31;53861;53.422;14.530;2022-12-07T08:54:56;2.35;96.90
66096;SHT31;53861;53.422;14.530;2022-12-07T08:57:24;2.33;96.59
66096;SHT31;53861;53.422;14.530;2022-12-07T08:59:52;2.47;96.75
66096;SHT31;53861;53.422;14.530;2022-12-07T09:02:19;2.46;95.63
66096;SHT31;53861;53.422;14.530;2022-12-07T09:04:46;2.70;95.92
66096;SHT31;53861;53.422;14.530;2022-12-07T09:07:13;2.86;95.09
66096;SHT31;53861;53.422;14.530;2022-12-07T09:09:40;2.88;94.79
66096;SHT31;53861;53.422;14.530;2022-12-07T09:12:07;2.93;94.59
66096;SHT31;53861;53.422;14.530;2022-12-07T09:14:34;2.97;94.46
66096;SHT31;53861;53.422;14.530;2022-12-07T09:17:08;3.01;94.84
66096;SHT31;53861;53.422;14.530;2022-12-07T09:19:35;2.98;95.47
66096;SHT31;53861;53.422;14.530;2022-12-07T09:22:02;2.83;94.89
66096;SHT31;53861;53.422;14.530;2022-12-07T09:24:30;3.05;95.60
66096;SHT31;53861;53.422;14.530;2022-12-07T09:26:57;3.10;95.24
66096;SHT31;53861;53.422;14.530;2022-12-07T09:29:24;3.14;94.94
66096;SHT31;53861;53.422;14.530;2022-12-07T09:31:51;3.25;95.10
66096;SHT31;53861;53.422;14.530;2022-12-07T09:34:19;3.18;93.80
66096;SHT31;53861;53.422;14.530;2022-12-07T09:36:46;3.42;94.29
66096;SHT31;53861;53.422;14.530;2022-12-07T09:39:13;4.11;92.43
66096;SHT31;53861;53.422;14.530;2022-12-07T09:41:41;4.54;90.37
66096;SHT31;53861;53.422;14.530;2022-12-07T09:44:09;4.45;88.33
66096;SHT31;53861;53.422;14.530;2022-12-07T09:46:38;4.16;89.08
66096;SHT31;53861;53.422;14.530;2022-12-07T09:49:05;4.14;90.54
66096;SHT31;53861;53.422;14.530;2022-12-07T09:51:38;4.00;91.35
66096;SHT31;53861;53.422;14.530;2022-12-07T09:54:05;3.80;91.02
66096;SHT31;53861;53.422;14.530;2022-12-07T09:56:32;3.61;91.59
66096;SHT31;53861;53.422;14.530;2022-12-07T09:58:59;3.35;91.94
66096;SHT31;53861;53.422;14.530;2022-12-07T10:01:28;3.39;93.12
66096;SHT31;53861;53.422;14.530;2022-12-07T10:03:58;3.43;92.97
66096;SHT31;53861;53.422;14.530;2022-12-07T10:06:27;3.32;92.51
66096;SHT31;53861;53.422;14.530;2022-12-07T10:08:55;3.32;91.85
66096;SHT31;53861;53.422;14.530;2022-12-07T10:11:22;3.21;91.69
66096;SHT31;53861;53.422;14.530;2022-12-07T10:13:50;3.28;92.40
66096;SHT31;53861;53.422;14.530;2022-12-07T10:16:37;3.38;91.29
66096;SHT31;53861;53.422;14.530;2022-12-07T10:19:17;3.54;92.42
66096;SHT31;53861;53.422;14.530;2022-12-07T10:21:58;3.55;91.87
66096;SHT31;53861;53.422;14.530;2022-12-07T10:24:27;3.55;91.65
66096;SHT31;53861;53.422;14.530;2022-12-07T10:26:54;3.83;90.37
66096;SHT31;53861;53.422;14.530;2022-12-07T10:29:21;4.41;89.77
66096;SHT31;53861;53.422;14.530;2022-12-07T10:31:50;4.60;88.84
66096;SHT31;53861;53.422;14.530;2022-12-07T10:34:21;4.89;89.00
66096;SHT31;53861;53.422;14.530;2022-12-07T10:36:49;4.53;87.59
66096;SHT31;53861;53.422;14.530;2022-12-07T10:39:17;4.13;89.69
66096;SHT31;53861;53.422;14.530;2022-12-07T10:41:53;3.94;90.81
66096;SHT31;53861;53.422;14.530;2022-12-07T10:44:22;3.80;90.43
66096;SHT31;53861;53.422;14.530;2022-12-07T10:47:05;3.62;91.46
66096;SHT31;53861;53.422;14.530;2022-12-07T10:52:21;3.45;92.49
66096;SHT31;53861;53.422;14.530;2022-12-07T10:54:55;3.34;92.53
66096;SHT31;53861;53.422;14.530;2022-12-07T10:57:32;3.31;92.72
66096;SHT31;53861;53.422;14.530;2022-12-07T11:00:06;3.34;93.64
66096;SHT31;53861;53.422;14.530;2022-12-07T11:02:45;3.31;92.68
66096;SHT31;53861;53.422;14.530;2022-12-07T11:05:18;3.31;93.97
66096;SHT31;53861;53.422;14.530;2022-12-07T11:07:49;3.25;93.07
66096;SHT31;53861;53.422;14.530;2022-12-07T11:10:18;3.28;92.97
66096;SHT31;53861;53.422;14.530;2022-12-07T11:15:33;3.52;93.14
66096;SHT31;53861;53.422;14.530;2022-12-07T11:18:03;3.58;93.02
66096;SHT31;53861;53.422;14.530;2022-12-07T11:20:37;3.69;92.39
66096;SHT31;53861;53.422;14.530;2022-12-07T11:23:11;3.76;92.58
66096;SHT31;53861;53.422;14.530;2022-12-07T11:25:42;3.87;92.28
66096;SHT31;53861;53.422;14.530;2022-12-07T11:28:17;3.89;91.62
66096;SHT31;53861;53.422;14.530;2022-12-07T11:30:50;4.13;93.39
66096;SHT31;53861;53.422;14.530;2022-12-07T11:33:19;4.14;90.87
66096;SHT31;53861;53.422;14.530;2022-12-07T11:35:50;4.17;91.99
66096;SHT31;53861;53.422;14.530;2022-12-07T11:38:22;4.54;91.99
66096;SHT31;53861;53.422;14.530;2022-12-07T11:40:50;4.85;88.34
66096;SHT31;53861;53.422;14.530;2022-12-07T11:43:20;5.15;86.81
66096;SHT31;53861;53.422;14.530;2022-12-07T11:45:51;5.06;89.97
66096;SHT31;53861;53.422;14.530;2022-12-07T11:48:20;4.86;89.06
66096;SHT31;53861;53.422;14.530;2022-12-07T11:50:50;4.79;88.52
66096;SHT31;53861;53.422;14.530;2022-12-07T11:53:19;4.74;89.34
66096;SHT31;53861;53.422;14.530;2022-12-07T11:55:49;4.54;87.59
66096;SHT31;53861;53.422;14.530;2022-12-07T11:58:20;4.21;89.16
66096;SHT31;53861;53.422;14.530;2022-12-07T12:00:49;4.03;88.09
66096;SHT31;53861;53.422;14.530;2022-12-07T12:03:20;3.94;89.96
66096;SHT31;53861;53.422;14.530;2022-12-07T12:05:50;3.92;89.89
66096;SHT31;53861;53.422;14.530;2022-12-07T12:08:17;3.87;89.66
66096;SHT31;53861;53.422;14.530;2022-12-07T12:10:52;3.79;89.28
66096;SHT31;53861;53.422;14.530;2022-12-07T12:13:36;3.73;89.01
66096;SHT31;53861;53.422;14.530;2022-12-07T12:16:16;3.72;88.30
66096;SHT31;53861;53.422;14.530;2022-12-07T12:18:53;4.57;86.72
66096;SHT31;53861;53.422;14.530;2022-12-07T12:21:26;5.06;84.23
66096;SHT31;53861;53.422;14.530;2022-12-07T12:23:55;7.11;79.31
66096;SHT31;53861;53.422;14.530;2022-12-07T12:26:23;7.03;75.62
66096;SHT31;53861;53.422;14.530;2022-12-07T12:28:51;6.83;77.47
66096;SHT31;53861;53.422;14.530;2022-12-07T12:31:30;6.46;75.79
66096;SHT31;53861;53.422;14.530;2022-12-07T12:34:00;5.71;80.26
66096;SHT31;53861;53.422;14.530;2022-12-07T12:36:42;5.15;80.56
66096;SHT31;53861;53.422;14.530;2022-12-07T12:39:11;4.64;84.35
66096;SHT31;53861;53.422;14.530;2022-12-07T12:42:01;5.32;85.47
66096;SHT31;53861;53.422;14.530;2022-12-07T12:47:42;7.90;75.86
66096;SHT31;53861;53.422;14.530;2022-12-07T12:50:15;8.84;72.32
66096;SHT31;53861;53.422;14.530;2022-12-07T12:52:48;8.87;73.15
66096;SHT31;53861;53.422;14.530;2022-12-07T12:55:18;8.77;74.15
66096;SHT31;53861;53.422;14.530;2022-12-07T12:57:47;6.90;76.24
66096;SHT31;53861;53.422;14.530;2022-12-07T13:00:18;6.00;80.54
66096;SHT31;53861;53.422;14.530;2022-12-07T13:02:50;5.29;82.39
66096;SHT31;53861;53.422;14.530;2022-12-07T13:05:18;4.88;83.07
66096;SHT31;53861;53.422;14.530;2022-12-07T13:07:49;4.57;84.29
66096;SHT31;53861;53.422;14.530;2022-12-07T13:10:21;4.32;84.14
66096;SHT31;53861;53.422;14.530;2022-12-07T13:12:55;4.51;85.66
66096;SHT31;53861;53.422;14.530;2022-12-07T13:15:32;4.81;84.30
66096;SHT31;53861;53.422;14.530;2022-12-07T13:18:01;4.85;83.09
66096;SHT31;53861;53.422;14.530;2022-12-07T13:23:29;4.32;84.30
66096;SHT31;53861;53.422;14.530;2022-12-07T13:26:01;4.18;82.35
66096;SHT31;53861;53.422;14.530;2022-12-07T13:28:32;4.02;82.97
66096;SHT31;53861;53.422;14.530;2022-12-07T13:31:02;3.96;82.60
66096;SHT31;53861;53.422;14.530;2022-12-07T13:33:32;3.94;79.14
66096;SHT31;53861;53.422;14.530;2022-12-07T13:36:01;3.79;79.94
66096;SHT31;53861;53.422;14.530;2022-12-07T13:38:29;3.71;81.56
66096;SHT31;53861;53.422;14.530;2022-12-07T13:41:11;3.43;81.03
66096;SHT31;53861;53.422;14.530;2022-12-07T13:43:42;3.17;80.34
66096;SHT31;53861;53.422;14.530;2022-12-07T13:46:09;3.03;83.68
66096;SHT31;53861;53.422;14.530;2022-12-07T13:48:45;2.94;83.76
66096;SHT31;53861;53.422;14.530;2022-12-07T13:51:16;2.80;83.87
66096;SHT31;53861;53.422;14.530;2022-12-07T13:53:45;2.70;83.71
66096;SHT31;53861;53.422;14.530;2022-12-07T13:56:13;2.61;85.78
66096;SHT31;53861;53.422;14.530;2022-12-07T13:58:40;2.56;85.98
66096;SHT31;53861;53.422;14.530;2022-12-07T14:01:07;2.54;86.30
66096;SHT31;53861;53.422;14.530;2022-12-07T14:03:35;2.46;84.48
66096;SHT31;53861;53.422;14.530;2022-12-07T14:06:11;2.49;86.44
66096;SHT31;53861;53.422;14.530;2022-12-07T14:08:40;2.59;86.69
66096;SHT31;53861;53.422;14.530;2022-12-07T14:11:06;2.64;85.47
66096;SHT31;53861;53.422;14.530;2022-12-07T14:13:35;2.70;86.87
66096;SHT31;53861;53.422;14.530;2022-12-07T14:16:05;2.54;87.96
66096;SHT31;53861;53.422;14.530;2022-12-07T14:18:42;2.39;90.35
66096;SHT31;53861;53.422;14.530;2022-12-07T14:21:15;2.33;89.17
66096;SHT31;53861;53.422;14.530;2022-12-07T14:23:42;2.30;89.39
66096;SHT31;53861;53.422;14.530;2022-12-07T14:26:11;2.39;91.69
66096;SHT31;53861;53.422;14.530;2022-12-07T14:28:38;2.45;90.07
66096;SHT31;53861;53.422;14.530;2022-12-07T14:31:08;2.22;88.25
66096;SHT31;53861;53.422;14.530;2022-12-07T14:33:36;2.21;89.07
66096;SHT31;53861;53.422;14.530;2022-12-07T14:36:04;2.26;90.07
66096;SHT31;53861;53.422;14.530;2022-12-07T14:38:32;2.21;90.08
66096;SHT31;53861;53.422;14.530;2022-12-07T14:40:59;2.21;90.64
66096;SHT31;53861;53.422;14.530;2022-12-07T14:43:40;2.21;90.63
66096;SHT31;53861;53.422;14.530;2022-12-07T14:46:07;2.02;90.32
66096;SHT31;53861;53.422;14.530;2022-12-07T14:48:35;1.84;90.87
66096;SHT31;53861;53.422;14.530;2022-12-07T14:51:02;1.86;91.48
66096;SHT31;53861;53.422;14.530;2022-12-07T14:53:31;2.02;93.06
66096;SHT31;53861;53.422;14.530;2022-12-07T14:56:01;1.86;90.91
66096;SHT31;53861;53.422;14.530;2022-12-07T14:58:31;1.88;90.99
66096;SHT31;53861;53.422;14.530;2022-12-07T15:00:58;1.92;91.58
66096;SHT31;53861;53.422;14.530;2022-12-07T15:03:25;1.99;91.66
66096;SHT31;53861;53.422;14.530;2022-12-07T15:05:52;1.98;90.55
66096;SHT31;53861;53.422;14.530;2022-12-07T15:08:19;1.99;89.81
66096;SHT31;53861;53.422;14.530;2022-12-07T15:10:45;1.89;91.09
66096;SHT31;53861;53.422;14.530;2022-12-07T15:13:14;1.92;91.64
66096;SHT31;53861;53.422;14.530;2022-12-07T15:15:59;1.91;91.15
66096;SHT31;53861;53.422;14.530;2022-12-07T15:18:27;1.86;91.31
66096;SHT31;53861;53.422;14.530;2022-12-07T15:20:55;2.01;91.54
66096;SHT31;53861;53.422;14.530;2022-12-07T15:23:22;2.06;91.88
66096;SHT31;53861;53.422;14.530;2022-12-07T15:25:51;2.19;91.12
66096;SHT31;53861;53.422;14.530;2022-12-07T15:28:20;2.15;90.66
66096;SHT31;53861;53.422;14.530;2022-12-07T15:30:46;2.21;91.35
66096;SHT31;53861;53.422;14.530;2022-12-07T15:33:13;2.29;90.16
66096;SHT31;53861;53.422;14.530;2022-12-07T15:35:40;2.21;89.18
66096;SHT31;53861;53.422;14.530;2022-12-07T15:38:08;2.29;90.11
66096;SHT31;53861;53.422;14.530;2022-12-07T15:40:38;2.14;88.83
66096;SHT31;53861;53.422;14.530;2022-12-07T15:43:05;2.09;89.13
66096;SHT31;53861;53.422;14.530;2022-12-07T15:45:54;1.99;89.97
66096;SHT31;53861;53.422;14.530;2022-12-07T15:48:20;2.01;91.71
66096;SHT31;53861;53.422;14.530;2022-12-07T15:50:47;1.92;89.62
66096;SHT31;53861;53.422;14.530;2022-12-07T15:53:13;2.04;90.76
66096;SHT31;53861;53.422;14.530;2022-12-07T15:55:40;2.05;88.40
66096;SHT31;53861;53.422;14.530;2022-12-07T15:58:07;2.08;91.90
66096;SHT31;53861;53.422;14.530;2022-12-07T16:00:36;2.02;90.54